Time;durP1;ratioP1;P1;durP2;ratioP2;P2;SDS_P1;SDS_P2;PMS_P1;PMS_P2;Temp;Humidity;BMP_temperature;BMP_pressure;BME280_temperature;BME280_humidity;BME280_pressure;Samples;Min_cycle;Max_cycle;Signal;HPM_P1;HPM_P2
2022/01/07 00:00:17;;;;;;;21.20;19.10;;;-1.30;99.90;;;;;;5058811;28;20441;-76
2022/01/07 00:02:44;;;;;;;21.17;19.00;;;-1.30;99.90;;;;;;5061782;28;20468;-76
2022/01/07 00:05:12;;;;;;;22.13;19.87;;;-1.30;99.90;;;;;;5067566;28;20497;-76
2022/01/07 00:07:39;;;;;;;22.03;19.90;;;-1.30;99.90;;;;;;5052320;28;20449;-76
2022/01/07 00:10:10;;;;;;;23.63;21.20;;;-1.30;99.90;;;;;;5074547;28;20460;-76
2022/01/07 00:12:37;;;;;;;22.03;20.13;;;-1.40;99.90;;;;;;5049847;28;20450;-76
2022/01/07 00:15:05;;;;;;;21.23;19.23;;;-1.40;99.90;;;;;;5069326;28;20471;-77
2022/01/07 00:17:32;;;;;;;21.67;19.70;;;-1.40;99.90;;;;;;5074427;28;20447;-76
2022/01/07 00:19:59;;;;;;;22.70;20.50;;;-1.40;99.90;;;;;;5050366;28;20445;-77
2022/01/07 00:22:27;;;;;;;20.70;18.87;;;-1.30;99.90;;;;;;5076906;28;20473;-76
2022/01/07 00:24:54;;;;;;;25.73;20.43;;;-1.40;99.90;;;;;;5057655;28;20535;-77
2022/01/07 00:27:22;;;;;;;21.67;19.73;;;-1.40;99.90;;;;;;5053272;28;20453;-76
2022/01/07 00:29:49;;;;;;;22.27;20.07;;;-1.40;99.90;;;;;;5061676;28;20825;-76
2022/01/07 00:32:16;;;;;;;21.87;19.83;;;-1.30;99.90;;;;;;5080555;28;20435;-77
2022/01/07 00:34:42;;;;;;;21.83;19.60;;;-1.40;99.90;;;;;;5060724;28;20471;-76
2022/01/07 00:37:09;;;;;;;21.57;19.47;;;-1.40;99.90;;;;;;5070017;28;20448;-76
2022/01/07 00:39:36;;;;;;;20.57;18.67;;;-1.40;99.90;;;;;;5073726;28;20428;-76
2022/01/07 00:42:04;;;;;;;21.33;19.17;;;-1.40;99.90;;;;;;5048942;28;20454;-77
2022/01/07 00:44:32;;;;;;;21.40;19.30;;;-1.40;99.90;;;;;;5077577;28;20467;-75
2022/01/07 00:46:59;;;;;;;20.27;18.53;;;-1.50;99.90;;;;;;5084813;28;20447;-76
2022/01/07 00:49:26;;;;;;;21.00;19.00;;;-1.50;99.90;;;;;;5069543;28;20454;-77
2022/01/07 00:51:53;;;;;;;20.83;18.73;;;-1.50;99.90;;;;;;5051953;28;20531;-78
2022/01/07 00:54:20;;;;;;;20.10;18.27;;;-1.50;99.90;;;;;;5053371;28;20474;-78
2022/01/07 00:56:50;;;;;;;22.10;20.10;;;-1.50;99.90;;;;;;5057323;28;20432;-76
2022/01/07 00:59:17;;;;;;;22.07;19.97;;;-1.50;99.90;;;;;;5065205;28;20425;-76
2022/01/07 01:01:46;;;;;;;23.00;20.77;;;-1.40;99.90;;;;;;5043472;28;20457;-77
2022/01/07 01:04:13;;;;;;;23.47;20.90;;;-1.40;99.90;;;;;;5073183;28;20485;-77
2022/01/07 01:06:41;;;;;;;24.07;21.67;;;-1.50;99.90;;;;;;5071771;28;20437;-76
2022/01/07 01:09:08;;;;;;;22.57;20.37;;;-1.50;99.90;;;;;;5061999;28;20532;-77
2022/01/07 01:11:35;;;;;;;23.67;21.10;;;-1.60;99.90;;;;;;5058018;28;20841;-77
2022/01/07 01:14:02;;;;;;;23.97;21.47;;;-1.60;99.90;;;;;;5078054;28;20460;-76
2022/01/07 01:16:28;;;;;;;24.90;22.30;;;-1.50;99.90;;;;;;5054834;28;20441;-76
2022/01/07 01:18:57;;;;;;;23.17;20.70;;;-1.60;99.90;;;;;;5068556;28;20941;-77
2022/01/07 01:21:27;;;;;;;24.60;22.20;;;-1.60;99.90;;;;;;5086571;28;20432;-76
2022/01/07 01:23:54;;;;;;;21.93;19.90;;;-1.70;99.90;;;;;;5049555;28;20956;-76
2022/01/07 01:26:21;;;;;;;22.50;20.33;;;-1.70;99.90;;;;;;5065289;28;20453;-76
2022/01/07 01:28:48;;;;;;;21.97;19.60;;;-1.70;99.90;;;;;;5057885;28;20460;-76
2022/01/07 01:31:17;;;;;;;22.00;20.00;;;-1.70;99.90;;;;;;5050043;28;20449;-77
2022/01/07 01:33:45;;;;;;;21.20;19.30;;;-1.80;99.90;;;;;;5063319;28;20463;-76
2022/01/07 01:36:14;;;;;;;22.00;19.73;;;-1.80;99.90;;;;;;5053812;28;20441;-76
2022/01/07 01:38:42;;;;;;;21.27;19.40;;;-1.90;99.90;;;;;;5056895;28;20433;-76
2022/01/07 01:41:10;;;;;;;23.40;19.00;;;-2.00;99.90;;;;;;5059297;28;20835;-76
2022/01/07 01:43:37;;;;;;;20.07;18.37;;;-2.00;99.90;;;;;;5053593;28;20476;-76
2022/01/07 01:46:04;;;;;;;22.53;19.33;;;-2.00;99.90;;;;;;5070188;28;20429;-77
2022/01/07 01:48:31;;;;;;;20.70;18.90;;;-2.00;99.90;;;;;;5067382;28;20440;-77
2022/01/07 01:50:59;;;;;;;21.23;19.33;;;-2.10;99.90;;;;;;5067388;28;20436;-77
2022/01/07 01:53:31;;;;;;;22.33;20.33;;;-2.10;99.90;;;;;;5063495;28;20433;-76
2022/01/07 01:55:57;;;;;;;20.30;18.63;;;-2.10;99.90;;;;;;5050117;28;20514;-76
2022/01/07 01:58:27;;;;;;;21.17;19.30;;;-2.10;99.90;;;;;;5074630;28;20438;-77
2022/01/07 02:00:53;;;;;;;22.53;20.53;;;-2.10;99.90;;;;;;5048134;28;20456;-76
2022/01/07 02:03:20;;;;;;;22.30;19.80;;;-2.10;99.90;;;;;;5078708;28;20475;-76
2022/01/07 02:05:47;;;;;;;22.13;20.10;;;-2.10;99.90;;;;;;5071774;28;20460;-76
2022/01/07 02:08:15;;;;;;;22.20;20.30;;;-2.10;99.90;;;;;;5067687;28;20447;-76
2022/01/07 02:10:43;;;;;;;22.40;20.50;;;-2.10;99.90;;;;;;5065005;28;20429;-77
2022/01/07 02:13:10;;;;;;;21.10;18.90;;;-2.00;99.90;;;;;;5090516;28;20439;-77
2022/01/07 02:15:37;;;;;;;21.80;19.80;;;-2.10;99.90;;;;;;5053813;28;20461;-76
2022/01/07 02:18:05;;;;;;;22.23;19.93;;;-2.10;99.90;;;;;;5056150;28;20819;-76
2022/01/07 02:20:33;;;;;;;22.07;19.77;;;-2.20;99.90;;;;;;5074615;28;20438;-76
2022/01/07 02:23:01;;;;;;;20.43;18.53;;;-2.20;99.90;;;;;;5059612;28;20465;-76
2022/01/07 02:25:31;;;;;;;21.43;19.53;;;-2.20;99.90;;;;;;5064915;28;20455;-76
2022/01/07 02:27:58;;;;;;;21.90;20.00;;;-2.20;99.90;;;;;;5070790;28;20938;-76
2022/01/07 02:30:30;;;;;;;21.87;19.57;;;-2.20;99.90;;;;;;5088763;28;20823;-76
2022/01/07 02:32:58;;;;;;;21.63;19.43;;;-2.20;99.90;;;;;;5073760;28;20503;-76
2022/01/07 02:35:28;;;;;;;21.43;19.47;;;-2.10;99.90;;;;;;5081994;28;20456;-76
2022/01/07 02:37:57;;;;;;;20.77;18.97;;;-2.10;99.90;;;;;;5055132;28;20996;-76
2022/01/07 02:40:24;;;;;;;21.50;19.43;;;-2.10;99.90;;;;;;5068915;28;20428;-76
2022/01/07 02:42:52;;;;;;;20.90;19.00;;;-2.10;99.90;;;;;;5075397;28;20473;-76
2022/01/07 02:45:18;;;;;;;21.33;19.23;;;-2.10;99.90;;;;;;5048017;28;20465;-76
2022/01/07 02:47:52;;;;;;;22.70;20.43;;;-2.00;99.90;;;;;;5073333;28;20437;-76
2022/01/07 02:50:22;;;;;;;22.20;20.20;;;-2.00;99.90;;;;;;5054883;28;20503;-76
2022/01/07 02:52:49;;;;;;;21.47;19.67;;;-1.90;99.90;;;;;;5070011;28;20975;-76
2022/01/07 02:55:18;;;;;;;21.13;19.33;;;-1.90;99.90;;;;;;5083753;28;20805;-76
2022/01/07 02:57:45;;;;;;;22.77;20.10;;;-1.90;99.90;;;;;;5053084;28;20448;-76
2022/01/07 03:00:13;;;;;;;21.77;19.87;;;-2.00;99.90;;;;;;5057140;28;20455;-76
2022/01/07 03:02:41;;;;;;;21.57;19.63;;;-1.90;99.90;;;;;;5064861;28;20437;-76
2022/01/07 03:05:09;;;;;;;22.17;20.27;;;-2.00;99.90;;;;;;5047677;28;20906;-76
2022/01/07 03:07:37;;;;;;;24.03;21.50;;;-1.90;99.90;;;;;;5073798;28;20774;-76
2022/01/07 03:10:04;;;;;;;21.67;19.73;;;-1.90;99.90;;;;;;5070539;28;20441;-76
2022/01/07 03:12:34;;;;;;;21.53;19.57;;;-1.90;99.90;;;;;;5084813;28;20444;-76
2022/01/07 03:15:01;;;;;;;21.43;19.53;;;-1.90;99.90;;;;;;5082620;28;20988;-77
2022/01/07 03:17:28;;;;;;;20.40;18.50;;;-1.90;99.90;;;;;;5049874;28;20456;-76
2022/01/07 03:19:55;;;;;;;20.77;18.83;;;-1.90;99.90;;;;;;5053082;28;20450;-76
2022/01/07 03:22:22;;;;;;;20.53;18.67;;;-1.90;99.90;;;;;;5074053;28;20506;-76
2022/01/07 03:24:48;;;;;;;21.57;19.17;;;-1.90;99.90;;;;;;5072448;28;20485;-76
2022/01/07 03:27:15;;;;;;;20.37;18.63;;;-1.90;99.90;;;;;;5070441;28;20433;-76
2022/01/07 03:29:43;;;;;;;21.73;17.77;;;-1.80;99.90;;;;;;5072623;28;20440;-77
2022/01/07 03:32:11;;;;;;;19.40;17.57;;;-1.80;99.90;;;;;;5072616;28;20946;-77
2022/01/07 03:34:37;;;;;;;20.50;18.43;;;-1.90;99.90;;;;;;5058767;28;20483;-77
2022/01/07 03:37:04;;;;;;;18.77;17.27;;;-1.90;99.90;;;;;;5072267;28;20433;-77
2022/01/07 03:39:31;;;;;;;19.30;17.70;;;-1.90;99.90;;;;;;5056100;28;20441;-76
2022/01/07 03:41:58;;;;;;;19.50;17.53;;;-2.00;99.90;;;;;;5073734;28;20964;-76
2022/01/07 03:44:25;;;;;;;19.63;17.67;;;-2.00;99.90;;;;;;5055148;28;20477;-77
2022/01/07 03:46:54;;;;;;;19.37;17.50;;;-2.00;99.90;;;;;;5079645;28;20451;-77
2022/01/07 03:49:20;;;;;;;18.97;17.13;;;-2.10;99.90;;;;;;5060061;28;20883;-78
2022/01/07 03:51:47;;;;;;;19.50;17.77;;;-2.10;99.90;;;;;;5049404;28;20455;-76
2022/01/07 03:54:14;;;;;;;18.97;17.47;;;-2.00;99.90;;;;;;5056268;28;20473;-77
2022/01/07 03:56:41;;;;;;;18.97;17.33;;;-1.90;99.90;;;;;;5076169;28;20815;-79
2022/01/07 03:59:08;;;;;;;18.50;16.63;;;-1.90;99.90;;;;;;5075995;28;20441;-78
2022/01/07 04:01:35;;;;;;;17.93;16.27;;;-1.90;99.90;;;;;;5079869;28;20453;-78
2022/01/07 04:04:03;;;;;;;17.50;16.10;;;-1.90;99.90;;;;;;5056099;28;21017;-77
2022/01/07 04:06:31;;;;;;;18.33;16.87;;;-2.00;99.90;;;;;;5049713;28;20456;-78
2022/01/07 04:08:58;;;;;;;19.17;17.47;;;-2.00;99.90;;;;;;5060977;28;20464;-78
2022/01/07 04:11:25;;;;;;;18.00;16.70;;;-1.90;99.90;;;;;;5061813;28;20441;-77
2022/01/07 04:13:52;;;;;;;18.33;16.70;;;-1.90;99.90;;;;;;5083005;28;20476;-78
2022/01/07 04:16:19;;;;;;;17.17;15.67;;;-1.90;99.90;;;;;;5048213;28;20465;-77
2022/01/07 04:18:46;;;;;;;18.90;17.30;;;-1.90;99.90;;;;;;5053550;28;20819;-79
2022/01/07 04:21:14;;;;;;;18.30;16.70;;;-1.90;99.90;;;;;;5076341;28;20941;-78
2022/01/07 04:23:41;;;;;;;18.57;17.00;;;-1.90;99.90;;;;;;5051489;28;20462;-78
2022/01/07 04:26:08;;;;;;;17.70;16.40;;;-1.90;99.90;;;;;;5066910;28;20455;-79
2022/01/07 04:28:35;;;;;;;18.33;16.63;;;-2.00;99.90;;;;;;5055665;28;20457;-77
2022/01/07 04:31:02;;;;;;;17.87;16.47;;;-2.00;99.90;;;;;;5073257;28;20933;-77
2022/01/07 04:33:32;;;;;;;18.27;16.80;;;-2.00;99.90;;;;;;5055913;28;20457;-77
2022/01/07 04:35:59;;;;;;;18.17;16.87;;;-2.00;99.90;;;;;;5052146;28;20433;-76
2022/01/07 04:38:28;;;;;;;20.37;18.40;;;-1.90;99.90;;;;;;5050557;28;20450;-76
2022/01/07 04:40:54;;;;;;;18.93;17.33;;;-1.90;99.90;;;;;;5070080;28;20433;-75
2022/01/07 04:43:21;;;;;;;18.27;16.87;;;-1.90;99.90;;;;;;5044270;28;20825;-75
2022/01/07 04:45:48;;;;;;;18.40;17.00;;;-1.90;99.90;;;;;;5074873;28;20461;-75
2022/01/07 04:48:15;;;;;;;19.40;17.77;;;-1.90;99.90;;;;;;5064656;28;20434;-76
2022/01/07 04:50:42;;;;;;;18.33;16.87;;;-1.90;99.90;;;;;;5053840;28;20816;-75
2022/01/07 04:53:09;;;;;;;19.43;17.40;;;-1.90;99.90;;;;;;5056409;28;20452;-77
2022/01/07 04:55:40;;;;;;;18.77;16.93;;;-1.90;99.90;;;;;;5044866;28;20468;-75
2022/01/07 04:58:08;;;;;;;17.70;16.33;;;-1.90;99.90;;;;;;5071322;28;20432;-75
2022/01/07 05:00:39;;;;;;;17.97;16.47;;;-1.90;99.90;;;;;;5045611;28;20452;-76
2022/01/07 05:03:06;;;;;;;17.13;15.83;;;-1.90;99.90;;;;;;5071993;28;20437;-77
2022/01/07 05:05:33;;;;;;;17.30;16.00;;;-1.90;99.90;;;;;;5059184;28;20487;-75
2022/01/07 05:08:01;;;;;;;17.30;15.87;;;-1.90;99.90;;;;;;5070708;28;20428;-75
2022/01/07 05:10:28;;;;;;;17.20;15.83;;;-1.90;99.90;;;;;;5049306;28;20836;-77
2022/01/07 05:12:56;;;;;;;16.67;15.40;;;-1.80;99.90;;;;;;5068871;28;20429;-76
2022/01/07 05:15:23;;;;;;;17.13;15.83;;;-1.80;99.90;;;;;;5064980;28;20463;-76
2022/01/07 05:17:51;;;;;;;16.60;15.30;;;-1.80;99.90;;;;;;5063262;28;20433;-76
2022/01/07 05:20:18;;;;;;;17.03;15.50;;;-1.70;99.90;;;;;;5064332;28;20442;-76
2022/01/07 05:22:46;;;;;;;16.73;15.40;;;-1.80;99.90;;;;;;5067286;28;20442;-75
2022/01/07 05:25:14;;;;;;;16.47;15.20;;;-1.80;99.90;;;;;;5069575;28;20503;-75
2022/01/07 05:27:41;;;;;;;16.50;15.20;;;-1.70;99.90;;;;;;5041708;28;20441;-76
2022/01/07 05:30:13;;;;;;;17.30;15.60;;;-1.70;99.90;;;;;;5068900;28;20944;-77
2022/01/07 05:32:40;;;;;;;17.47;16.07;;;-1.70;99.90;;;;;;5053810;28;20946;-75
2022/01/07 05:35:08;;;;;;;17.43;16.13;;;-1.70;99.90;;;;;;5071139;28;20451;-76
2022/01/07 05:37:35;;;;;;;16.87;15.67;;;-1.70;99.90;;;;;;5062843;28;20429;-75
2022/01/07 05:40:02;;;;;;;17.30;15.77;;;-1.80;99.90;;;;;;5050074;28;20441;-75
2022/01/07 05:42:29;;;;;;;17.30;16.00;;;-1.80;99.90;;;;;;5065689;28;20787;-76
2022/01/07 05:44:57;;;;;;;16.90;15.63;;;-1.90;99.90;;;;;;5068678;28;20980;-76
2022/01/07 05:47:25;;;;;;;17.60;15.80;;;-1.80;99.90;;;;;;5062631;28;20429;-77
2022/01/07 05:49:52;;;;;;;17.40;16.10;;;-1.80;99.90;;;;;;5054751;28;20452;-76
2022/01/07 05:52:19;;;;;;;17.47;15.87;;;-1.80;99.90;;;;;;5064145;28;20430;-76
2022/01/07 05:54:46;;;;;;;18.13;16.63;;;-1.80;99.90;;;;;;5052997;28;20627;-76
2022/01/07 05:57:13;;;;;;;17.87;16.30;;;-1.80;99.90;;;;;;5069197;28;20433;-77
2022/01/07 05:59:39;;;;;;;18.37;16.60;;;-1.90;99.90;;;;;;5047958;28;20446;-76
2022/01/07 06:02:06;;;;;;;17.50;15.90;;;-1.80;99.90;;;;;;5072899;28;20429;-76
2022/01/07 06:04:35;;;;;;;17.47;15.97;;;-1.80;99.90;;;;;;5050156;28;20480;-76
2022/01/07 06:07:03;;;;;;;17.33;15.73;;;-1.80;99.90;;;;;;5050870;28;20457;-77
2022/01/07 06:09:29;;;;;;;17.50;16.10;;;-1.80;99.90;;;;;;5067046;28;20456;-77
2022/01/07 06:11:56;;;;;;;17.50;16.10;;;-1.80;99.90;;;;;;5057825;28;20436;-77
2022/01/07 06:14:23;;;;;;;17.87;16.47;;;-1.80;99.90;;;;;;5066407;28;20839;-77
2022/01/07 06:16:50;;;;;;;16.77;15.43;;;-1.80;99.90;;;;;;5070111;28;20429;-77
2022/01/07 06:19:17;;;;;;;17.97;16.47;;;-1.80;99.90;;;;;;5072297;28;20450;-77
2022/01/07 06:21:45;;;;;;;18.10;16.60;;;-1.70;99.90;;;;;;5044965;28;20448;-78
2022/01/07 06:24:12;;;;;;;18.90;17.50;;;-1.80;99.90;;;;;;5063411;28;20477;-78
2022/01/07 06:26:39;;;;;;;18.77;17.20;;;-1.80;99.90;;;;;;5051414;28;20454;-77
2022/01/07 06:29:06;;;;;;;18.17;16.60;;;-1.70;99.90;;;;;;5057219;28;20448;-76
2022/01/07 06:31:33;;;;;;;17.73;16.43;;;-1.60;99.90;;;;;;5063103;28;20794;-80
2022/01/07 06:34:02;;;;;;;17.30;16.00;;;-1.70;99.90;;;;;;5075820;28;20481;-78
2022/01/07 06:36:29;;;;;;;17.63;16.33;;;-1.70;99.90;;;;;;5062872;28;20468;-77
2022/01/07 06:38:58;;;;;;;17.00;15.70;;;-1.80;99.90;;;;;;5062895;28;20459;-78
2022/01/07 06:41:25;;;;;;;17.03;15.53;;;-1.90;99.90;;;;;;5070988;28;20451;-77
2022/01/07 06:43:52;;;;;;;16.70;15.40;;;-1.90;99.90;;;;;;5058076;28;20480;-77
2022/01/07 06:46:19;;;;;;;16.83;15.53;;;-1.90;99.90;;;;;;5055685;28;20467;-78
2022/01/07 06:48:46;;;;;;;17.67;16.00;;;-1.90;99.90;;;;;;5056307;28;20457;-77
2022/01/07 06:51:12;;;;;;;17.70;16.23;;;-1.80;99.90;;;;;;5067151;28;21003;-77
2022/01/07 06:53:39;;;;;;;18.37;16.67;;;-1.80;99.90;;;;;;5064216;28;20476;-76
2022/01/07 06:56:07;;;;;;;18.07;16.37;;;-1.70;99.90;;;;;;5081122;28;20431;-76
2022/01/07 06:58:34;;;;;;;17.37;16.07;;;-1.70;99.90;;;;;;5080939;28;20621;-78
2022/01/07 07:01:02;;;;;;;17.10;15.80;;;-1.70;99.90;;;;;;5069868;28;20440;-77
2022/01/07 07:03:28;;;;;;;17.47;15.97;;;-1.60;99.90;;;;;;5069868;28;20438;-76
2022/01/07 07:05:55;;;;;;;18.10;16.70;;;-1.60;99.90;;;;;;5074161;28;20473;-77
2022/01/07 07:08:22;;;;;;;18.67;16.87;;;-1.60;99.90;;;;;;5046592;28;20464;-77
2022/01/07 07:10:49;;;;;;;18.27;16.87;;;-1.60;99.90;;;;;;5063231;28;20473;-77
2022/01/07 07:13:18;;;;;;;19.07;17.47;;;-1.60;99.90;;;;;;5064825;28;20856;-76
2022/01/07 07:15:47;;;;;;;18.40;16.90;;;-1.50;99.90;;;;;;5075563;28;20972;-77
2022/01/07 07:18:14;;;;;;;17.90;16.50;;;-1.50;99.90;;;;;;5072406;28;20812;-77
2022/01/07 07:20:41;;;;;;;18.97;17.27;;;-1.50;99.90;;;;;;5052446;28;20449;-76
2022/01/07 07:23:08;;;;;;;18.87;17.20;;;-1.50;99.90;;;;;;5072732;28;20486;-81
2022/01/07 07:25:35;;;;;;;18.13;16.63;;;-1.50;99.90;;;;;;5048174;28;20473;-80
2022/01/07 07:28:02;;;;;;;19.17;17.63;;;-1.40;99.90;;;;;;5050837;28;20461;-78
2022/01/07 07:30:35;;;;;;;19.07;17.67;;;-1.40;99.90;;;;;;5076286;28;20434;-77
2022/01/07 07:33:28;;;;;;;18.93;17.30;;;-1.40;99.90;;;;;;5059700;28;20449;-77
2022/01/07 07:38:35;;;;;;;18.20;16.80;;;-1.50;99.90;;;;;;5059053;28;20502;-77
2022/01/07 07:41:02;;;;;;;19.17;17.50;;;-1.50;99.90;;;;;;5078193;28;20439;-78
2022/01/07 07:43:29;;;;;;;17.87;16.47;;;-1.50;99.90;;;;;;5067307;28;20453;-76
2022/01/07 07:45:57;;;;;;;19.00;17.27;;;-1.40;99.90;;;;;;5072837;28;20473;-77
2022/01/07 07:48:24;;;;;;;19.23;17.47;;;-1.30;99.90;;;;;;5068130;28;20432;-77
2022/01/07 07:50:52;;;;;;;19.80;18.17;;;-1.30;99.90;;;;;;5059682;28;20457;-77
2022/01/07 07:53:19;;;;;;;18.60;17.20;;;-1.20;99.90;;;;;;5072659;28;20428;-77
2022/01/07 07:55:51;;;;;;;19.37;17.77;;;-1.10;99.90;;;;;;5076965;28;20480;-76
2022/01/07 07:58:18;;;;;;;19.57;18.00;;;-1.00;99.90;;;;;;5067975;28;20528;-77
2022/01/07 08:00:44;;;;;;;19.03;17.33;;;-0.90;99.90;;;;;;5078163;28;20437;-77
2022/01/07 08:03:13;;;;;;;19.87;18.07;;;-0.80;99.90;;;;;;5085392;28;20436;-76
2022/01/07 08:05:40;;;;;;;19.57;17.87;;;-0.70;99.90;;;;;;5062824;28;21029;-76
2022/01/07 08:08:07;;;;;;;20.97;19.00;;;-0.50;99.90;;;;;;5071904;28;20429;-76
2022/01/07 08:10:35;;;;;;;20.00;18.37;;;-0.30;99.90;;;;;;5061914;28;20449;-76
2022/01/07 08:13:27;;;;;;;21.53;19.37;;;0.00;99.90;;;;;;5053499;28;20454;-77
2022/01/07 08:15:58;;;;;;;20.23;18.43;;;0.30;99.90;;;;;;5068248;28;21082;-77
2022/01/07 08:18:28;;;;;;;20.87;19.03;;;0.70;99.90;;;;;;5066358;28;20425;-77
2022/01/07 08:20:55;;;;;;;20.70;18.83;;;1.20;99.90;;;;;;5054024;28;20455;-76
2022/01/07 08:23:23;;;;;;;19.73;17.93;;;1.40;99.90;;;;;;5070376;28;20444;-77
2022/01/07 08:25:50;;;;;;;18.63;17.00;;;1.30;99.90;;;;;;5075175;28;20494;-76
2022/01/07 08:28:18;;;;;;;18.47;16.97;;;1.30;99.90;;;;;;5071172;28;20438;-77
2022/01/07 08:31:23;;;;;;;17.60;16.03;;;1.30;99.90;;;;;;5068133;28;20446;-77
2022/01/07 08:36:36;;;;;;;19.10;17.43;;;1.30;99.90;;;;;;5068457;28;20435;-76
2022/01/07 08:39:07;;;;;;;18.73;17.23;;;1.30;99.90;;;;;;5059616;28;20448;-76
2022/01/07 08:41:35;;;;;;;18.30;16.80;;;1.30;99.90;;;;;;5052281;28;20931;-76
2022/01/07 08:44:02;;;;;;;19.47;17.87;;;1.40;99.90;;;;;;5075221;28;20470;-76
2022/01/07 08:46:29;;;;;;;19.37;17.87;;;1.40;99.90;;;;;;5064086;28;20545;-76
2022/01/07 08:48:58;;;;;;;19.07;17.57;;;1.50;99.90;;;;;;5055137;28;20457;-76
2022/01/07 08:51:26;;;;;;;19.03;17.33;;;1.50;99.90;;;;;;5072692;28;20447;-77
2022/01/07 08:53:53;;;;;;;18.20;16.80;;;1.50;99.90;;;;;;5060551;28;20455;-77
2022/01/07 08:56:23;;;;;;;18.00;16.50;;;1.60;99.90;;;;;;5060256;28;20449;-76
2022/01/07 08:58:50;;;;;;;18.27;16.77;;;1.60;99.90;;;;;;5068235;28;21040;-77
2022/01/07 09:01:17;;;;;;;18.23;16.33;;;1.70;99.90;;;;;;5072909;28;20444;-77
2022/01/07 09:03:44;;;;;;;17.67;16.17;;;1.70;99.90;;;;;;5068126;28;20432;-77
2022/01/07 09:06:12;;;;;;;17.97;16.57;;;1.70;99.90;;;;;;5055159;28;20489;-77
2022/01/07 09:08:39;;;;;;;18.90;17.13;;;1.80;99.90;;;;;;5061523;28;20475;-77
2022/01/07 09:11:06;;;;;;;17.07;15.77;;;1.80;99.90;;;;;;5052746;28;20973;-76
2022/01/07 09:13:33;;;;;;;17.93;16.50;;;1.80;99.90;;;;;;5059345;28;20452;-77
2022/01/07 09:16:00;;;;;;;19.10;17.30;;;1.80;99.90;;;;;;5078916;28;20814;-77
2022/01/07 09:18:27;;;;;;;20.23;18.53;;;1.70;99.90;;;;;;5069992;28;20439;-78
2022/01/07 09:20:55;;;;;;;20.83;18.93;;;1.60;99.90;;;;;;5079083;28;20442;-79
2022/01/07 09:23:23;;;;;;;20.10;18.30;;;1.60;99.90;;;;;;5070736;28;20971;-77
2022/01/07 09:25:50;;;;;;;20.60;18.80;;;1.60;99.90;;;;;;5074792;28;21009;-77
2022/01/07 09:28:18;;;;;;;19.57;18.03;;;1.70;99.90;;;;;;5065113;28;20433;-77
2022/01/07 09:30:45;;;;;;;19.60;17.90;;;1.70;99.90;;;;;;5052112;28;20483;-77
2022/01/07 09:33:12;;;;;;;19.73;18.13;;;1.70;99.90;;;;;;5080742;28;20434;-77
2022/01/07 09:35:39;;;;;;;20.37;18.57;;;1.80;99.90;;;;;;5057551;28;20475;-77
2022/01/07 09:38:05;;;;;;;19.37;17.73;;;1.80;99.90;;;;;;5065829;28;20841;-77
2022/01/07 09:40:34;;;;;;;20.00;18.33;;;1.80;99.90;;;;;;5072836;28;20445;-77
2022/01/07 09:43:03;;;;;;;19.17;17.47;;;1.80;99.90;;;;;;5063570;28;20444;-77
2022/01/07 09:45:32;;;;;;;20.53;18.73;;;1.70;99.90;;;;;;5076109;28;20486;-77
2022/01/07 09:48:01;;;;;;;20.37;18.43;;;1.70;99.90;;;;;;5079030;28;20431;-77
2022/01/07 09:50:29;;;;;;;19.47;17.73;;;1.70;99.90;;;;;;5078103;28;20445;-76
2022/01/07 09:52:56;;;;;;;19.13;17.43;;;1.80;99.90;;;;;;5081350;28;20509;-77
2022/01/07 09:55:24;;;;;;;20.20;18.47;;;1.80;99.90;;;;;;5062923;28;20491;-77
2022/01/07 09:57:52;;;;;;;19.47;17.67;;;1.90;99.90;;;;;;5071374;28;20937;-78
2022/01/07 10:00:19;;;;;;;19.60;18.00;;;2.00;99.90;;;;;;5079571;28;20440;-76
2022/01/07 10:03:00;;;;;;;19.33;17.43;;;2.00;99.90;;;;;;5057208;28;20442;-77
2022/01/07 10:05:27;;;;;;;17.90;16.40;;;2.00;99.90;;;;;;5076876;28;20795;-77
2022/01/07 10:07:54;;;;;;;17.90;16.37;;;2.00;99.90;;;;;;5063313;28;20445;-77
2022/01/07 10:10:26;;;;;;;17.60;16.10;;;2.10;99.90;;;;;;5079149;28;20473;-78
2022/01/07 10:12:59;;;;;;;17.83;16.33;;;2.20;99.90;;;;;;5062131;28;20441;-77
2022/01/07 10:15:28;;;;;;;17.73;16.17;;;2.30;99.90;;;;;;5059587;28;20483;-77
2022/01/07 10:17:58;;;;;;;18.27;16.87;;;2.30;99.90;;;;;;5081295;28;20440;-77
2022/01/07 10:20:26;;;;;;;17.73;15.93;;;2.30;99.90;;;;;;5056626;28;20442;-77
2022/01/07 10:22:57;;;;;;;17.27;15.77;;;2.30;99.90;;;;;;5080631;28;20441;-77
2022/01/07 10:25:27;;;;;;;17.60;16.23;;;2.30;99.90;;;;;;5052372;28;20474;-77
2022/01/07 10:28:02;;;;;;;17.73;16.03;;;2.30;99.90;;;;;;5061382;28;20448;-77
2022/01/07 10:30:35;;;;;;;17.30;15.90;;;2.40;99.90;;;;;;5069295;28;20429;-76
2022/01/07 10:33:14;;;;;;;17.47;16.07;;;2.40;99.90;;;;;;5066751;28;20798;-77
2022/01/07 10:35:42;;;;;;;17.30;15.77;;;2.40;99.90;;;;;;5071202;28;20815;-77
2022/01/07 10:38:09;;;;;;;17.10;15.70;;;2.40;99.90;;;;;;5082138;28;20432;-76
2022/01/07 10:40:37;;;;;;;18.03;16.33;;;2.40;99.90;;;;;;5070585;28;20438;-77
2022/01/07 10:43:14;;;;;;;17.47;15.87;;;2.50;99.90;;;;;;5077080;28;20439;-76
2022/01/07 10:45:43;;;;;;;16.80;15.50;;;2.50;99.90;;;;;;5055521;28;20469;-76
2022/01/07 10:48:10;;;;;;;17.63;16.23;;;2.50;99.90;;;;;;5077869;28;20194;-76
2022/01/07 10:50:39;;;;;;;17.73;16.23;;;2.50;99.90;;;;;;5081084;28;20439;-78
2022/01/07 10:53:21;;;;;;;16.80;15.43;;;2.60;99.90;;;;;;5056931;28;20506;-80
2022/01/07 10:56:03;;;;;;;17.97;16.50;;;2.60;99.90;;;;;;5070663;28;20476;-81
2022/01/07 10:58:56;;;;;;;17.47;16.03;;;2.50;99.90;;;;;;5074233;28;20441;-77
2022/01/07 11:01:27;;;;;;;18.10;16.60;;;2.50;99.90;;;;;;5078171;28;20482;-77
2022/01/07 11:04:00;;;;;;;18.67;17.03;;;2.50;99.90;;;;;;5053992;28;20479;-78
2022/01/07 11:06:30;;;;;;;18.80;17.30;;;2.50;99.90;;;;;;5055907;28;20521;-78
2022/01/07 11:09:00;;;;;;;18.63;17.03;;;2.50;99.90;;;;;;5059649;28;20452;-76
2022/01/07 11:11:30;;;;;;;17.40;16.07;;;2.50;99.90;;;;;;5076684;28;20443;-78
2022/01/07 11:14:05;;;;;;;19.23;17.63;;;2.50;99.90;;;;;;5072053;28;20506;-76
2022/01/07 11:16:32;;;;;;;17.33;15.77;;;2.50;99.90;;;;;;5067955;28;20432;-77
2022/01/07 11:19:03;;;;;;;17.87;16.47;;;2.50;99.90;;;;;;5057871;28;20448;-77
2022/01/07 11:21:31;;;;;;;17.23;15.93;;;2.50;99.90;;;;;;5071604;28;20456;-77
2022/01/07 11:23:57;;;;;;;17.43;15.90;;;2.50;99.90;;;;;;5071671;28;20452;-76
2022/01/07 11:26:24;;;;;;;18.70;17.10;;;2.40;99.90;;;;;;5076105;28;20479;-77
2022/01/07 11:29:00;;;;;;;18.93;17.27;;;2.50;99.90;;;;;;5069889;28;20449;-76
2022/01/07 11:31:28;;;;;;;17.73;16.23;;;2.50;99.90;;;;;;5072859;28;20891;-76
2022/01/07 11:34:26;;;;;;;18.37;16.77;;;2.50;99.90;;;;;;5057685;28;21002;-77
2022/01/07 11:36:54;;;;;;;17.70;16.17;;;2.50;99.90;;;;;;5072712;28;21216;-76
2022/01/07 11:39:23;;;;;;;17.77;16.30;;;2.60;99.90;;;;;;5080028;28;20443;-77
2022/01/07 11:41:53;;;;;;;17.47;16.07;;;2.60;99.90;;;;;;5050749;28;20514;-76
2022/01/07 11:44:27;;;;;;;17.40;16.03;;;2.50;99.90;;;;;;5061974;28;20471;-77
2022/01/07 11:47:24;;;;;;;18.90;17.20;;;2.50;99.90;;;;;;5046441;28;20484;-77
2022/01/07 11:50:03;;;;;;;17.90;16.50;;;2.40;99.90;;;;;;5063717;28;20451;-76
2022/01/07 11:52:35;;;;;;;18.17;16.47;;;2.40;99.90;;;;;;5071507;28;20430;-77
2022/01/07 11:55:31;;;;;;;16.90;15.60;;;2.40;99.90;;;;;;5052445;28;20475;-76
2022/01/07 11:58:01;;;;;;;19.27;17.73;;;2.60;99.90;;;;;;5075407;28;20440;-76
2022/01/07 12:00:56;;;;;;;17.93;16.63;;;2.60;99.90;;;;;;5076122;28;20536;-77
2022/01/07 12:03:37;;;;;;;17.30;15.90;;;2.60;99.90;;;;;;5076731;28;20854;-76
2022/01/07 12:06:44;;;;;;;17.67;16.30;;;2.70;99.90;;;;;;5082463;28;20870;-76
2022/01/07 12:09:16;;;;;;;17.27;15.73;;;2.80;99.90;;;;;;5071002;28;20453;-76
2022/01/07 12:11:45;;;;;;;17.00;15.60;;;2.90;99.90;;;;;;5067590;28;20439;-77
2022/01/07 12:14:14;;;;;;;16.60;15.23;;;3.00;99.90;;;;;;5070669;28;20471;-76
2022/01/07 12:16:45;;;;;;;17.90;16.47;;;3.10;99.90;;;;;;5071790;28;20429;-77
2022/01/07 12:19:51;;;;;;;18.50;16.83;;;3.10;99.90;;;;;;5057027;28;20206;-76
2022/01/07 12:22:20;;;;;;;17.57;16.07;;;3.30;99.90;;;;;;5052822;28;20681;-76
2022/01/07 12:24:48;;;;;;;18.17;16.67;;;3.30;99.90;;;;;;5057642;28;20313;-76
2022/01/07 12:27:18;;;;;;;17.83;16.40;;;3.30;99.90;;;;;;5066944;28;20699;-76
2022/01/07 12:29:47;;;;;;;18.20;16.80;;;3.30;99.90;;;;;;5063792;28;20226;-77
2022/01/07 12:32:18;;;;;;;18.30;16.70;;;3.30;99.90;;;;;;5070348;28;20207;-77
2022/01/07 12:34:48;;;;;;;19.50;17.73;;;3.30;99.90;;;;;;5068823;28;20652;-77
2022/01/07 12:37:17;;;;;;;17.70;16.30;;;3.40;99.90;;;;;;5071253;28;20199;-77
2022/01/07 12:39:46;;;;;;;17.80;16.47;;;3.40;99.90;;;;;;5071817;28;20609;-76
2022/01/07 12:42:14;;;;;;;18.40;16.97;;;3.30;99.90;;;;;;5050788;28;20617;-77
2022/01/07 12:44:43;;;;;;;17.50;16.13;;;3.30;99.90;;;;;;5053147;28;20599;-76